sensor_id;sensor_type;location;lat;lon;timestamp;pressure;altitude;pressure_sealevel;temperature;humidity
69257;BME280;56376;53.356;-1.748;2022-11-20T00:00:55;98860.50;;;6.26;100.00
69257;BME280;56376;53.356;-1.748;2022-11-20T00:03:21;98863.06;;;6.27;100.00
69257;BME280;56376;53.356;-1.748;2022-11-20T00:05:46;98857.91;;;6.26;100.00
69257;BME280;56376;53.356;-1.748;2022-11-20T00:08:12;98853.63;;;6.25;100.00
69257;BME280;56376;53.356;-1.748;2022-11-20T00:10:39;98859.59;;;6.27;100.00
69257;BME280;56376;53.356;-1.748;2022-11-20T00:13:05;98862.19;;;6.27;100.00
69257;BME280;56376;53.356;-1.748;2022-11-20T00:15:33;98848.44;;;6.25;100.00
69257;BME280;56376;53.356;-1.748;2022-11-20T00:17:59;98857.00;;;6.27;100.00
69257;BME280;56376;53.356;-1.748;2022-11-20T00:20:24;98855.28;;;6.27;100.00
69257;BME280;56376;53.356;-1.748;2022-11-20T00:22:50;98851.81;;;6.27;100.00
69257;BME280;56376;53.356;-1.748;2022-11-20T00:25:16;98841.44;;;6.27;100.00
69257;BME280;56376;53.356;-1.748;2022-11-20T00:27:41;98835.41;;;6.26;100.00
69257;BME280;56376;53.356;-1.748;2022-11-20T00:30:07;98831.16;;;6.24;100.00
69257;BME280;56376;53.356;-1.748;2022-11-20T00:32:33;98832.88;;;6.25;100.00
69257;BME280;56376;53.356;-1.748;2022-11-20T00:34:58;98825.97;;;6.24;100.00
69257;BME280;56376;53.356;-1.748;2022-11-20T00:37:23;98826.78;;;6.26;100.00
69257;BME280;56376;53.356;-1.748;2022-11-20T00:39:49;98821.63;;;6.24;100.00
69257;BME280;56376;53.356;-1.748;2022-11-20T00:42:14;98816.41;;;6.26;100.00
69257;BME280;56376;53.356;-1.748;2022-11-20T00:44:40;98819.91;;;6.25;100.00
69257;BME280;56376;53.356;-1.748;2022-11-20T00:47:05;98813.84;;;6.24;100.00
69257;BME280;56376;53.356;-1.748;2022-11-20T00:49:30;98810.38;;;6.25;100.00
69257;BME280;56376;53.356;-1.748;2022-11-20T00:51:56;98809.47;;;6.26;100.00
69257;BME280;56376;53.356;-1.748;2022-11-20T00:54:21;98800.03;;;6.24;100.00
69257;BME280;56376;53.356;-1.748;2022-11-20T00:56:46;98793.97;;;6.25;100.00
69257;BME280;56376;53.356;-1.748;2022-11-20T00:59:12;98786.19;;;6.25;100.00
69257;BME280;56376;53.356;-1.748;2022-11-20T01:01:38;98781.84;;;6.25;100.00
69257;BME280;56376;53.356;-1.748;2022-11-20T01:04:04;98778.41;;;6.25;100.00
69257;BME280;56376;53.356;-1.748;2022-11-20T01:06:33;98778.41;;;6.25;100.00
69257;BME280;56376;53.356;-1.748;2022-11-20T01:09:02;98768.03;;;6.25;100.00
69257;BME280;56376;53.356;-1.748;2022-11-20T01:11:36;98773.22;;;6.25;100.00
69257;BME280;56376;53.356;-1.748;2022-11-20T01:14:04;98774.09;;;6.24;100.00
69257;BME280;56376;53.356;-1.748;2022-11-20T01:16:33;98760.34;;;6.22;100.00
69257;BME280;56376;53.356;-1.748;2022-11-20T01:19:00;98757.75;;;6.22;100.00
69257;BME280;56376;53.356;-1.748;2022-11-20T01:21:31;98749.91;;;6.23;100.00
69257;BME280;56376;53.356;-1.748;2022-11-20T01:23:58;98749.13;;;6.21;100.00
69257;BME280;56376;53.356;-1.748;2022-11-20T01:26:26;98746.50;;;6.23;100.00
69257;BME280;56376;53.356;-1.748;2022-11-20T01:28:53;98741.31;;;6.23;100.00
69257;BME280;56376;53.356;-1.748;2022-11-20T01:31:21;98743.06;;;6.22;100.00
69257;BME280;56376;53.356;-1.748;2022-11-20T01:33:49;98740.47;;;6.22;100.00
69257;BME280;56376;53.356;-1.748;2022-11-20T01:36:15;98737.91;;;6.21;100.00
69257;BME280;56376;53.356;-1.748;2022-11-20T01:38:42;98742.25;;;6.20;100.00
69257;BME280;56376;53.356;-1.748;2022-11-20T01:41:08;98733.66;;;6.18;100.00
69257;BME280;56376;53.356;-1.748;2022-11-20T01:43:34;98727.63;;;6.18;100.00
69257;BME280;56376;53.356;-1.748;2022-11-20T01:48:59;98718.94;;;6.19;100.00
69257;BME280;56376;53.356;-1.748;2022-11-20T01:51:33;98715.44;;;6.20;100.00
69257;BME280;56376;53.356;-1.748;2022-11-20T01:54:03;98708.56;;;6.19;100.00
69257;BME280;56376;53.356;-1.748;2022-11-20T01:56:34;98694.78;;;6.17;100.00
69257;BME280;56376;53.356;-1.748;2022-11-20T01:59:02;98694.69;;;6.20;100.00
69257;BME280;56376;53.356;-1.748;2022-11-20T02:01:29;98692.09;;;6.20;100.00
69257;BME280;56376;53.356;-1.748;2022-11-20T02:03:54;98687.81;;;6.19;100.00
69257;BME280;56376;53.356;-1.748;2022-11-20T02:06:26;98694.75;;;6.18;100.00
69257;BME280;56376;53.356;-1.748;2022-11-20T02:08:52;98688.66;;;6.19;100.00
69257;BME280;56376;53.356;-1.748;2022-11-20T02:11:19;98680.94;;;6.18;100.00
69257;BME280;56376;53.356;-1.748;2022-11-20T02:13:45;98679.31;;;6.15;100.00
69257;BME280;56376;53.356;-1.748;2022-11-20T02:16:15;98680.16;;;6.16;100.00
69257;BME280;56376;53.356;-1.748;2022-11-20T02:18:42;98664.63;;;6.14;100.00
69257;BME280;56376;53.356;-1.748;2022-11-20T02:24:17;98648.22;;;6.14;100.00
69257;BME280;56376;53.356;-1.748;2022-11-20T02:26:51;98647.28;;;6.16;100.00
69257;BME280;56376;53.356;-1.748;2022-11-20T02:29:23;98646.44;;;6.16;100.00
69257;BME280;56376;53.356;-1.748;2022-11-20T02:31:50;98643.03;;;6.14;100.00
69257;BME280;56376;53.356;-1.748;2022-11-20T02:34:15;98640.44;;;6.14;100.00
69257;BME280;56376;53.356;-1.748;2022-11-20T02:36:41;98625.69;;;6.16;100.00
69257;BME280;56376;53.356;-1.748;2022-11-20T02:39:09;98611.19;;;6.10;100.00
69257;BME280;56376;53.356;-1.748;2022-11-20T02:41:37;98619.81;;;6.11;100.00
69257;BME280;56376;53.356;-1.748;2022-11-20T02:44:04;98610.31;;;6.10;100.00
69257;BME280;56376;53.356;-1.748;2022-11-20T02:46:30;98609.47;;;6.09;100.00
69257;BME280;56376;53.356;-1.748;2022-11-20T02:48:56;98603.44;;;6.09;100.00
69257;BME280;56376;53.356;-1.748;2022-11-20T02:51:21;98595.72;;;6.07;100.00
69257;BME280;56376;53.356;-1.748;2022-11-20T02:53:47;98596.63;;;6.06;100.00
69257;BME280;56376;53.356;-1.748;2022-11-20T02:56:13;98591.47;;;6.04;100.00
69257;BME280;56376;53.356;-1.748;2022-11-20T02:58:38;98585.34;;;6.07;100.00
69257;BME280;56376;53.356;-1.748;2022-11-20T03:01:03;98582.75;;;6.07;100.00
69257;BME280;56376;53.356;-1.748;2022-11-20T03:03:29;98583.69;;;6.04;100.00
69257;BME280;56376;53.356;-1.748;2022-11-20T03:05:54;98582.03;;;6.03;100.00
69257;BME280;56376;53.356;-1.748;2022-11-20T03:08:20;98570.00;;;6.01;100.00
69257;BME280;56376;53.356;-1.748;2022-11-20T03:10:45;98582.03;;;6.03;100.00
69257;BME280;56376;53.356;-1.748;2022-11-20T03:13:10;98564.78;;;6.02;100.00
69257;BME280;56376;53.356;-1.748;2022-11-20T03:15:36;98565.66;;;6.01;100.00
69257;BME280;56376;53.356;-1.748;2022-11-20T03:18:02;98551.81;;;6.02;100.00
69257;BME280;56376;53.356;-1.748;2022-11-20T03:20:28;98546.63;;;6.02;100.00
69257;BME280;56376;53.356;-1.748;2022-11-20T03:22:54;98551.75;;;6.04;100.00
69257;BME280;56376;53.356;-1.748;2022-11-20T03:25:20;98543.16;;;6.02;100.00
69257;BME280;56376;53.356;-1.748;2022-11-20T03:27:46;98528.53;;;6.01;100.00
69257;BME280;56376;53.356;-1.748;2022-11-20T03:30:12;98534.56;;;6.01;100.00
69257;BME280;56376;53.356;-1.748;2022-11-20T03:32:37;98521.66;;;6.00;100.00
69257;BME280;56376;53.356;-1.748;2022-11-20T03:35:03;98513.88;;;6.00;100.00
69257;BME280;56376;53.356;-1.748;2022-11-20T03:37:28;98509.59;;;5.99;100.00
69257;BME280;56376;53.356;-1.748;2022-11-20T03:39:53;98505.22;;;5.99;100.00
69257;BME280;56376;53.356;-1.748;2022-11-20T03:42:19;98506.94;;;6.00;100.00
69257;BME280;56376;53.356;-1.748;2022-11-20T03:45:03;98500.16;;;5.96;100.00
69257;BME280;56376;53.356;-1.748;2022-11-20T03:47:29;98481.22;;;5.94;100.00
69257;BME280;56376;53.356;-1.748;2022-11-20T03:49:54;98500.25;;;5.93;100.00
69257;BME280;56376;53.356;-1.748;2022-11-20T03:52:20;98495.88;;;5.95;100.00
69257;BME280;56376;53.356;-1.748;2022-11-20T03:54:45;98489.88;;;5.93;100.00
69257;BME280;56376;53.356;-1.748;2022-11-20T03:57:10;98479.50;;;5.93;100.00
69257;BME280;56376;53.356;-1.748;2022-11-20T03:59:36;98472.59;;;5.94;100.00
69257;BME280;56376;53.356;-1.748;2022-11-20T04:02:01;98469.13;;;5.95;100.00
69257;BME280;56376;53.356;-1.748;2022-11-20T04:04:26;98467.38;;;5.95;100.00
69257;BME280;56376;53.356;-1.748;2022-11-20T04:06:52;98457.09;;;5.92;100.00
69257;BME280;56376;53.356;-1.748;2022-11-20T04:09:17;98457.09;;;5.92;100.00
69257;BME280;56376;53.356;-1.748;2022-11-20T04:11:42;98447.59;;;5.91;100.00
69257;BME280;56376;53.356;-1.748;2022-11-20T04:14:13;98445.84;;;5.92;100.00
69257;BME280;56376;53.356;-1.748;2022-11-20T04:16:39;98441.53;;;5.92;100.00
69257;BME280;56376;53.356;-1.748;2022-11-20T04:19:09;98434.66;;;5.91;100.00
69257;BME280;56376;53.356;-1.748;2022-11-20T04:21:35;98427.78;;;5.90;100.00
69257;BME280;56376;53.356;-1.748;2022-11-20T04:24:00;98438.16;;;5.90;100.00
69257;BME280;56376;53.356;-1.748;2022-11-20T04:26:28;98433.75;;;5.92;100.00
69257;BME280;56376;53.356;-1.748;2022-11-20T04:28:54;98428.56;;;5.92;100.00
69257;BME280;56376;53.356;-1.748;2022-11-20T04:31:23;98428.53;;;5.94;100.00
69257;BME280;56376;53.356;-1.748;2022-11-20T04:33:48;98439.78;;;5.93;100.00
69257;BME280;56376;53.356;-1.748;2022-11-20T04:36:16;98434.66;;;5.91;100.00
69257;BME280;56376;53.356;-1.748;2022-11-20T04:38:42;98431.09;;;5.95;100.00
69257;BME280;56376;53.356;-1.748;2022-11-20T04:41:14;98426.81;;;5.93;100.00
69257;BME280;56376;53.356;-1.748;2022-11-20T04:43:40;98428.44;;;5.97;100.00
69257;BME280;56376;53.356;-1.748;2022-11-20T04:46:05;98435.31;;;5.98;100.00
69257;BME280;56376;53.356;-1.748;2022-11-20T04:48:30;98424.94;;;5.98;100.00
69257;BME280;56376;53.356;-1.748;2022-11-20T04:50:56;98432.72;;;5.98;100.00
69257;BME280;56376;53.356;-1.748;2022-11-20T04:53:22;98421.44;;;5.99;100.00
69257;BME280;56376;53.356;-1.748;2022-11-20T04:55:48;98427.53;;;5.98;100.00
69257;BME280;56376;53.356;-1.748;2022-11-20T04:58:14;98423.16;;;6.00;100.00
69257;BME280;56376;53.356;-1.748;2022-11-20T05:00:40;98428.38;;;5.98;100.00
69257;BME280;56376;53.356;-1.748;2022-11-20T05:03:05;98439.56;;;6.00;100.00
69257;BME280;56376;53.356;-1.748;2022-11-20T05:05:32;98431.78;;;6.00;100.00
69257;BME280;56376;53.356;-1.748;2022-11-20T05:07:58;98429.09;;;6.02;100.00
69257;BME280;56376;53.356;-1.748;2022-11-20T05:10:27;98439.44;;;6.03;100.00
69257;BME280;56376;53.356;-1.748;2022-11-20T05:12:53;98429.19;;;6.00;100.00
69257;BME280;56376;53.356;-1.748;2022-11-20T05:15:18;98430.81;;;6.03;100.00
69257;BME280;56376;53.356;-1.748;2022-11-20T05:17:48;98434.13;;;6.06;100.00
69257;BME280;56376;53.356;-1.748;2022-11-20T05:20:14;98437.53;;;6.09;100.00
69257;BME280;56376;53.356;-1.748;2022-11-20T05:22:39;98429.06;;;6.03;100.00
69257;BME280;56376;53.356;-1.748;2022-11-20T05:25:05;98436.84;;;6.03;100.00
69257;BME280;56376;53.356;-1.748;2022-11-20T05:27:30;98414.50;;;5.99;100.00
69257;BME280;56376;53.356;-1.748;2022-11-20T05:29:56;98422.19;;;6.02;100.00
69257;BME280;56376;53.356;-1.748;2022-11-20T05:32:21;98412.72;;;6.01;100.00
69257;BME280;56376;53.356;-1.748;2022-11-20T05:34:50;98411.75;;;6.04;100.00
69257;BME280;56376;53.356;-1.748;2022-11-20T05:37:15;98403.25;;;6.00;100.00
69257;BME280;56376;53.356;-1.748;2022-11-20T05:39:41;98398.91;;;6.01;100.00
69257;BME280;56376;53.356;-1.748;2022-11-20T05:42:06;98393.63;;;6.04;100.00
69257;BME280;56376;53.356;-1.748;2022-11-20T05:44:50;98396.16;;;6.05;100.00
69257;BME280;56376;53.356;-1.748;2022-11-20T05:47:15;98390.03;;;6.08;100.00
69257;BME280;56376;53.356;-1.748;2022-11-20T05:49:41;98388.22;;;6.10;100.00
69257;BME280;56376;53.356;-1.748;2022-11-20T05:52:06;98385.63;;;6.10;100.00
69257;BME280;56376;53.356;-1.748;2022-11-20T05:54:32;98385.56;;;6.12;100.00
69257;BME280;56376;53.356;-1.748;2022-11-20T05:56:57;98390.69;;;6.13;100.00
69257;BME280;56376;53.356;-1.748;2022-11-20T05:59:22;98379.50;;;6.13;100.00
69257;BME280;56376;53.356;-1.748;2022-11-20T06:01:48;98387.16;;;6.16;100.00
69257;BME280;56376;53.356;-1.748;2022-11-20T06:04:13;98380.25;;;6.15;100.00
69257;BME280;56376;53.356;-1.748;2022-11-20T06:06:38;98381.03;;;6.17;100.00
69257;BME280;56376;53.356;-1.748;2022-11-20T06:09:04;98365.50;;;6.17;100.00
69257;BME280;56376;53.356;-1.748;2022-11-20T06:11:29;98374.91;;;6.19;100.00
69257;BME280;56376;53.356;-1.748;2022-11-20T06:13:55;98373.16;;;6.20;100.00
69257;BME280;56376;53.356;-1.748;2022-11-20T06:16:20;98373.16;;;6.20;100.00
69257;BME280;56376;53.356;-1.748;2022-11-20T06:18:47;98371.72;;;6.13;100.00
69257;BME280;56376;53.356;-1.748;2022-11-20T06:21:15;98369.13;;;6.13;100.00
69257;BME280;56376;53.356;-1.748;2022-11-20T06:23:41;98368.19;;;6.14;100.00
69257;BME280;56376;53.356;-1.748;2022-11-20T06:26:11;98365.59;;;6.14;100.00
69257;BME280;56376;53.356;-1.748;2022-11-20T06:28:37;98360.44;;;6.14;100.00
69257;BME280;56376;53.356;-1.748;2022-11-20T06:31:03;98357.78;;;6.15;100.00
69257;BME280;56376;53.356;-1.748;2022-11-20T06:33:29;98359.41;;;6.18;100.00
69257;BME280;56376;53.356;-1.748;2022-11-20T06:35:59;98368.03;;;6.18;100.00
69257;BME280;56376;53.356;-1.748;2022-11-20T06:38:25;98369.72;;;6.19;100.00
69257;BME280;56376;53.356;-1.748;2022-11-20T06:40:51;98354.91;;;6.23;100.00
69257;BME280;56376;53.356;-1.748;2022-11-20T06:43:16;98357.44;;;6.24;100.00
69257;BME280;56376;53.356;-1.748;2022-11-20T06:45:42;98356.41;;;6.28;100.00
69257;BME280;56376;53.356;-1.748;2022-11-20T06:48:08;98362.41;;;6.31;100.00
69257;BME280;56376;53.356;-1.748;2022-11-20T06:50:35;98368.25;;;6.36;100.00
69257;BME280;56376;53.356;-1.748;2022-11-20T06:53:02;98371.69;;;6.36;100.00
69257;BME280;56376;53.356;-1.748;2022-11-20T06:55:28;98372.59;;;6.35;100.00
69257;BME280;56376;53.356;-1.748;2022-11-20T06:57:54;98366.50;;;6.36;100.00
69257;BME280;56376;53.356;-1.748;2022-11-20T07:00:19;98365.53;;;6.39;100.00
69257;BME280;56376;53.356;-1.748;2022-11-20T07:02:45;98368.13;;;6.39;100.00
69257;BME280;56376;53.356;-1.748;2022-11-20T07:05:10;98367.13;;;6.43;100.00
69257;BME280;56376;53.356;-1.748;2022-11-20T07:07:35;98370.56;;;6.43;100.00
69257;BME280;56376;53.356;-1.748;2022-11-20T07:10:01;98369.53;;;6.47;100.00
69257;BME280;56376;53.356;-1.748;2022-11-20T07:12:26;98379.84;;;6.49;100.00
69257;BME280;56376;53.356;-1.748;2022-11-20T07:14:52;98379.00;;;6.48;100.00
69257;BME280;56376;53.356;-1.748;2022-11-20T07:17:18;98391.91;;;6.50;100.00
69257;BME280;56376;53.356;-1.748;2022-11-20T07:19:43;98392.78;;;6.50;100.00
69257;BME280;56376;53.356;-1.748;2022-11-20T07:22:08;98399.59;;;6.53;100.00
69257;BME280;56376;53.356;-1.748;2022-11-20T07:24:34;98393.63;;;6.51;100.00
69257;BME280;56376;53.356;-1.748;2022-11-20T07:27:00;98398.72;;;6.53;100.00
69257;BME280;56376;53.356;-1.748;2022-11-20T07:29:25;98384.91;;;6.52;100.00
69257;BME280;56376;53.356;-1.748;2022-11-20T07:31:50;98384.88;;;6.54;100.00
69257;BME280;56376;53.356;-1.748;2022-11-20T07:34:16;98389.13;;;6.55;100.00
69257;BME280;56376;53.356;-1.748;2022-11-20T07:36:41;98398.63;;;6.56;100.00
69257;BME280;56376;53.356;-1.748;2022-11-20T07:39:07;98400.31;;;6.57;100.00
69257;BME280;56376;53.356;-1.748;2022-11-20T07:41:32;98404.63;;;6.58;100.00
69257;BME280;56376;53.356;-1.748;2022-11-20T07:43:58;98401.16;;;6.57;100.00
69257;BME280;56376;53.356;-1.748;2022-11-20T07:46:23;98407.97;;;6.60;100.00
69257;BME280;56376;53.356;-1.748;2022-11-20T07:48:49;98413.06;;;6.63;100.00
69257;BME280;56376;53.356;-1.748;2022-11-20T07:51:14;98430.47;;;6.59;100.00
69257;BME280;56376;53.356;-1.748;2022-11-20T07:53:39;98432.25;;;6.59;100.00
69257;BME280;56376;53.356;-1.748;2022-11-20T07:56:06;98427.22;;;6.54;100.00
69257;BME280;56376;53.356;-1.748;2022-11-20T07:58:32;98437.47;;;6.57;100.00
69257;BME280;56376;53.356;-1.748;2022-11-20T08:01:06;98445.34;;;6.56;100.00
69257;BME280;56376;53.356;-1.748;2022-11-20T08:03:32;98434.28;;;6.50;100.00
69257;BME280;56376;53.356;-1.748;2022-11-20T08:06:01;98438.59;;;6.50;100.00
69257;BME280;56376;53.356;-1.748;2022-11-20T08:08:27;98437.88;;;6.46;100.00
69257;BME280;56376;53.356;-1.748;2022-11-20T08:10:53;98445.84;;;6.42;100.00
69257;BME280;56376;53.356;-1.748;2022-11-20T08:13:38;98444.16;;;6.41;100.00
69257;BME280;56376;53.356;-1.748;2022-11-20T08:16:22;98432.31;;;6.34;100.00
69257;BME280;56376;53.356;-1.748;2022-11-20T08:18:48;98444.44;;;6.33;100.00
69257;BME280;56376;53.356;-1.748;2022-11-20T08:21:13;98439.28;;;6.32;100.00
69257;BME280;56376;53.356;-1.748;2022-11-20T08:23:38;98435.69;;;6.36;100.00
69257;BME280;56376;53.356;-1.748;2022-11-20T08:26:04;98444.31;;;6.36;100.00
69257;BME280;56376;53.356;-1.748;2022-11-20T08:28:29;98439.13;;;6.36;100.00
69257;BME280;56376;53.356;-1.748;2022-11-20T08:30:59;98450.19;;;6.41;100.00
69257;BME280;56376;53.356;-1.748;2022-11-20T08:33:25;98442.34;;;6.43;100.00
69257;BME280;56376;53.356;-1.748;2022-11-20T08:35:51;98447.41;;;6.46;100.00
69257;BME280;56376;53.356;-1.748;2022-11-20T08:38:16;98450.69;;;6.51;100.00
69257;BME280;56376;53.356;-1.748;2022-11-20T08:40:41;98444.66;;;6.50;100.00
69257;BME280;56376;53.356;-1.748;2022-11-20T08:43:27;98440.16;;;6.56;100.00
69257;BME280;56376;53.356;-1.748;2022-11-20T08:45:52;98447.94;;;6.56;100.00
69257;BME280;56376;53.356;-1.748;2022-11-20T08:48:20;98449.63;;;6.57;100.00
69257;BME280;56376;53.356;-1.748;2022-11-20T08:50:46;98449.78;;;6.52;100.00
69257;BME280;56376;53.356;-1.748;2022-11-20T08:53:11;98447.94;;;6.56;100.00
69257;BME280;56376;53.356;-1.748;2022-11-20T08:55:36;98446.19;;;6.56;100.00
69257;BME280;56376;53.356;-1.748;2022-11-20T08:58:06;98443.59;;;6.56;100.00
69257;BME280;56376;53.356;-1.748;2022-11-20T09:00:32;98447.81;;;6.59;100.00
69257;BME280;56376;53.356;-1.748;2022-11-20T09:02:59;98438.28;;;6.59;100.00
69257;BME280;56376;53.356;-1.748;2022-11-20T09:05:26;98443.41;;;6.61;100.00
69257;BME280;56376;53.356;-1.748;2022-11-20T09:07:51;98442.38;;;6.65;100.00
69257;BME280;56376;53.356;-1.748;2022-11-20T09:10:17;98438.94;;;6.64;100.00
69257;BME280;56376;53.356;-1.748;2022-11-20T09:12:42;98449.16;;;6.69;100.00
69257;BME280;56376;53.356;-1.748;2022-11-20T09:15:08;98440.75;;;6.62;100.00
69257;BME280;56376;53.356;-1.748;2022-11-20T09:17:33;98452.00;;;6.63;100.00
69257;BME280;56376;53.356;-1.748;2022-11-20T09:19:59;98451.91;;;6.64;100.00
69257;BME280;56376;53.356;-1.748;2022-11-20T09:22:24;98450.28;;;6.62;100.00
69257;BME280;56376;53.356;-1.748;2022-11-20T09:24:49;98462.38;;;6.63;100.00
69257;BME280;56376;53.356;-1.748;2022-11-20T09:27:15;98463.25;;;6.62;100.00
69257;BME280;56376;53.356;-1.748;2022-11-20T09:29:45;98468.31;;;6.65;100.00
69257;BME280;56376;53.356;-1.748;2022-11-20T09:32:11;98467.44;;;6.66;100.00
69257;BME280;56376;53.356;-1.748;2022-11-20T09:34:36;98474.25;;;6.68;100.00
69257;BME280;56376;53.356;-1.748;2022-11-20T09:37:01;98475.94;;;6.69;100.00
69257;BME280;56376;53.356;-1.748;2022-11-20T09:39:27;98475.41;;;6.61;100.00
69257;BME280;56376;53.356;-1.748;2022-11-20T09:55:22;98475.34;;;6.63;100.00
69257;BME280;56376;53.356;-1.748;2022-11-20T09:57:51;98471.00;;;6.63;100.00
69257;BME280;56376;53.356;-1.748;2022-11-20T10:00:17;98472.50;;;6.69;100.00
69257;BME280;56376;53.356;-1.748;2022-11-20T10:03:06;98476.56;;;6.76;100.00
69257;BME280;56376;53.356;-1.748;2022-11-20T10:05:48;98475.44;;;6.83;100.00
69257;BME280;56376;53.356;-1.748;2022-11-20T10:29:32;98489.78;;;7.37;100.00
69257;BME280;56376;53.356;-1.748;2022-11-20T10:32:04;98492.91;;;7.46;100.00
69257;BME280;56376;53.356;-1.748;2022-11-20T10:35:00;98490.38;;;7.66;100.00
69257;BME280;56376;53.356;-1.748;2022-11-20T10:37:27;98490.88;;;7.74;100.00
69257;BME280;56376;53.356;-1.748;2022-11-20T10:40:27;98496.47;;;7.86;100.00
69257;BME280;56376;53.356;-1.748;2022-11-20T10:43:00;98479.38;;;8.00;100.00
69257;BME280;56376;53.356;-1.748;2022-11-20T10:48:14;98482.28;;;8.34;100.00
69257;BME280;56376;53.356;-1.748;2022-11-20T10:50:53;98475.53;;;8.50;100.00
69257;BME280;56376;53.356;-1.748;2022-11-20T10:53:45;98461.81;;;8.65;100.00
69257;BME280;56376;53.356;-1.748;2022-11-20T10:56:30;98466.19;;;8.84;100.00
69257;BME280;56376;53.356;-1.748;2022-11-20T11:01:50;98472.88;;;9.08;100.00
69257;BME280;56376;53.356;-1.748;2022-11-20T11:07:00;98450.50;;;9.22;100.00
69257;BME280;56376;53.356;-1.748;2022-11-20T11:09:37;98458.13;;;9.26;100.00
69257;BME280;56376;53.356;-1.748;2022-11-20T11:12:09;98456.06;;;9.33;100.00
69257;BME280;56376;53.356;-1.748;2022-11-20T11:14:46;98459.97;;;9.42;100.00
69257;BME280;56376;53.356;-1.748;2022-11-20T11:17:45;98454.47;;;9.48;100.00
69257;BME280;56376;53.356;-1.748;2022-11-20T11:20:15;98453.50;;;9.50;100.00
69257;BME280;56376;53.356;-1.748;2022-11-20T11:22:54;98452.41;;;9.54;100.00
69257;BME280;56376;53.356;-1.748;2022-11-20T11:25:32;98449.06;;;9.52;100.00
69257;BME280;56376;53.356;-1.748;2022-11-20T11:30:44;98447.50;;;9.48;98.67
69257;BME280;56376;53.356;-1.748;2022-11-20T11:33:22;98437.75;;;9.52;99.99
69257;BME280;56376;53.356;-1.748;2022-11-20T11:35:56;98436.69;;;9.56;100.00
69257;BME280;56376;53.356;-1.748;2022-11-20T11:38:34;98435.31;;;9.49;99.13
69257;BME280;56376;53.356;-1.748;2022-11-20T11:41:01;98435.16;;;9.52;99.97
69257;BME280;56376;53.356;-1.748;2022-11-20T11:43:32;98429.94;;;9.52;97.81
69257;BME280;56376;53.356;-1.748;2022-11-20T11:51:39;98423.28;;;9.46;99.29
69257;BME280;56376;53.356;-1.748;2022-11-20T11:54:21;98423.13;;;9.49;98.84
69257;BME280;56376;53.356;-1.748;2022-11-20T11:56:49;98406.47;;;9.52;98.90
69257;BME280;56376;53.356;-1.748;2022-11-20T11:59:25;98411.31;;;9.60;98.50
69257;BME280;56376;53.356;-1.748;2022-11-20T12:02:00;98413.31;;;9.72;97.18
69257;BME280;56376;53.356;-1.748;2022-11-20T12:04:50;98419.50;;;9.87;96.07
69257;BME280;56376;53.356;-1.748;2022-11-20T12:07:31;98412.66;;;10.02;95.23
69257;BME280;56376;53.356;-1.748;2022-11-20T12:10:02;98414.63;;;10.14;94.40
69257;BME280;56376;53.356;-1.748;2022-11-20T12:12:40;98415.06;;;10.22;93.16
69257;BME280;56376;53.356;-1.748;2022-11-20T12:15:13;98408.00;;;10.24;91.88
69257;BME280;56376;53.356;-1.748;2022-11-20T12:17:41;98415.00;;;10.24;93.05
69257;BME280;56376;53.356;-1.748;2022-11-20T12:20:13;98403.97;;;10.18;93.13
69257;BME280;56376;53.356;-1.748;2022-11-20T12:22:59;98407.72;;;10.13;92.81
69257;BME280;56376;53.356;-1.748;2022-11-20T12:25:32;98410.72;;;10.05;93.41
69257;BME280;56376;53.356;-1.748;2022-11-20T12:28:20;98419.72;;;10.00;94.39
69257;BME280;56376;53.356;-1.748;2022-11-20T12:36:40;98402.09;;;9.87;94.89
69257;BME280;56376;53.356;-1.748;2022-11-20T12:39:33;98416.06;;;9.86;94.77
69257;BME280;56376;53.356;-1.748;2022-11-20T12:42:16;98413.38;;;9.88;93.69
69257;BME280;56376;53.356;-1.748;2022-11-20T12:45:25;98411.63;;;9.88;93.91
69257;BME280;56376;53.356;-1.748;2022-11-20T12:50:52;98416.91;;;9.87;93.58
69257;BME280;56376;53.356;-1.748;2022-11-20T12:56:31;98410.84;;;9.86;93.90
69257;BME280;56376;53.356;-1.748;2022-11-20T13:07:01;98421.84;;;9.75;93.29
69257;BME280;56376;53.356;-1.748;2022-11-20T13:09:27;98421.13;;;9.72;93.04
69257;BME280;56376;53.356;-1.748;2022-11-20T13:12:01;98415.22;;;9.68;93.24
69257;BME280;56376;53.356;-1.748;2022-11-20T13:14:53;98417.06;;;9.66;93.44
69257;BME280;56376;53.356;-1.748;2022-11-20T13:17:50;98412.78;;;9.65;93.28
69257;BME280;56376;53.356;-1.748;2022-11-20T13:20:18;98406.69;;;9.65;93.16
69257;BME280;56376;53.356;-1.748;2022-11-20T13:22:46;98414.63;;;9.63;92.40
69257;BME280;56376;53.356;-1.748;2022-11-20T13:25:29;98412.91;;;9.62;92.50
69257;BME280;56376;53.356;-1.748;2022-11-20T13:27:57;98413.00;;;9.61;92.73
69257;BME280;56376;53.356;-1.748;2022-11-20T13:30:25;98407.97;;;9.58;91.85
69257;BME280;56376;53.356;-1.748;2022-11-20T13:32:56;98415.91;;;9.54;91.84
69257;BME280;56376;53.356;-1.748;2022-11-20T13:35:34;98427.31;;;9.52;92.46
69257;BME280;56376;53.356;-1.748;2022-11-20T13:38:01;98430.03;;;9.50;92.88
69257;BME280;56376;53.356;-1.748;2022-11-20T13:40:27;98431.81;;;9.50;92.98
69257;BME280;56376;53.356;-1.748;2022-11-20T13:43:19;98428.47;;;9.46;92.71
69257;BME280;56376;53.356;-1.748;2022-11-20T13:46:01;98436.38;;;9.45;93.03
69257;BME280;56376;53.356;-1.748;2022-11-20T13:51:05;98429.78;;;9.38;93.29
69257;BME280;56376;53.356;-1.748;2022-11-20T14:02:26;98419.66;;;9.31;95.23
69257;BME280;56376;53.356;-1.748;2022-11-20T14:04:55;98421.34;;;9.32;95.20
69257;BME280;56376;53.356;-1.748;2022-11-20T14:07:25;98418.88;;;9.29;95.38
69257;BME280;56376;53.356;-1.748;2022-11-20T14:09:55;98412.06;;;9.27;95.64
69257;BME280;56376;53.356;-1.748;2022-11-20T14:12:30;98414.66;;;9.27;96.07
69257;BME280;56376;53.356;-1.748;2022-11-20T14:14:56;98410.44;;;9.24;95.88
69257;BME280;56376;53.356;-1.748;2022-11-20T14:17:29;98414.03;;;9.22;95.97
69257;BME280;56376;53.356;-1.748;2022-11-20T14:20:04;98415.81;;;9.21;95.74
69257;BME280;56376;53.356;-1.748;2022-11-20T14:22:30;98408.91;;;9.20;96.35
69257;BME280;56376;53.356;-1.748;2022-11-20T14:25:06;98405.47;;;9.20;95.98
69257;BME280;56376;53.356;-1.748;2022-11-20T14:27:37;98399.50;;;9.18;95.27
69257;BME280;56376;53.356;-1.748;2022-11-20T14:30:03;98403.09;;;9.15;95.20